Aul Turara Ryskulova, Kazakhstan
Current Conditions -  °F | °C
As of 3:30 PM on Thursday 18 Dec 2014 (Local Time) from UAII Reporting Station
Overcast Overcast  
Wind Chill: 41°   Ceiling: 10000
Heat Index: 41°   Visibility: 4mi
Dew Point: 27°   Wind: 2mph
Humidity: 57%   Direction: NA
Pressure: 30.21"   Gusts: NA
Location:  42.48°N, 70.3°E
Report Text: UAII 180930Z VRB01MPS 6000 OVC100 05/M03 Q1023 R28/0///70 NOSIGRMK QFE730/0973
Loading
Personal Weather Stations






























Interactive Weather Map New forecast layout! Learn more

10-Day Weather Forecast

Advertisements
Track Severe Weather on mobile